createdAt,value
2022-09-07T00:00:40.078Z,18.30
2022-09-07T00:03:07.149Z,18.40
2022-09-07T00:05:34.422Z,18.30
2022-09-07T00:08:01.526Z,18.30
2022-09-07T00:10:28.994Z,18.30
2022-09-07T00:12:55.816Z,18.30
2022-09-07T00:15:23.148Z,18.30
2022-09-07T00:17:50.235Z,18.30
2022-09-07T00:20:17.399Z,18.30
2022-09-07T00:22:46.182Z,18.20
2022-09-07T00:25:13.352Z,18.20
2022-09-07T00:27:40.521Z,18.20
2022-09-07T00:30:08.102Z,18.10
2022-09-07T00:32:35.288Z,18.10
2022-09-07T00:35:02.147Z,18.10
2022-09-07T00:37:28.969Z,18.10
2022-09-07T00:39:55.894Z,18.10
2022-09-07T00:42:23.109Z,18.10
2022-09-07T00:45:07.934Z,18.10
2022-09-07T00:47:43.747Z,18.00
2022-09-07T00:50:23.861Z,18.00
2022-09-07T00:53:07.154Z,18.00
2022-09-07T00:55:36.337Z,18.00
2022-09-07T00:58:04.608Z,18.00
2022-09-07T01:00:32.122Z,18.00
2022-09-07T01:03:00.759Z,18.00
2022-09-07T01:05:45.992Z,18.00
2022-09-07T01:08:14.098Z,17.90
2022-09-07T01:10:40.985Z,17.90
2022-09-07T01:13:08.529Z,17.90
2022-09-07T01:16:07.890Z,17.90
2022-09-07T01:19:19.118Z,17.80
2022-09-07T01:22:13.403Z,17.80
2022-09-07T01:25:07.716Z,17.70
2022-09-07T01:28:07.021Z,17.70
2022-09-07T01:30:37.918Z,17.70
2022-09-07T01:33:23.128Z,17.70
2022-09-07T01:36:21.398Z,17.80
2022-09-07T01:39:00.541Z,17.70
2022-09-07T01:41:55.428Z,17.70
2022-09-07T01:44:31.358Z,17.70
2022-09-07T01:47:01.290Z,17.70
2022-09-07T01:49:35.501Z,17.70
2022-09-07T01:52:08.057Z,17.60
2022-09-07T01:54:48.096Z,17.60
2022-09-07T01:57:31.206Z,17.60
2022-09-07T02:00:11.667Z,17.60
2022-09-07T02:02:48.505Z,17.70
2022-09-07T02:05:30.713Z,17.60
2022-09-07T02:08:20.938Z,17.60
2022-09-07T02:10:59.841Z,17.60
2022-09-07T02:13:43.695Z,17.70
2022-09-07T02:16:30.011Z,17.70
2022-09-07T02:19:08.858Z,17.70
2022-09-07T02:21:40.131Z,17.70
2022-09-07T02:24:16.174Z,17.70
2022-09-07T02:26:48.258Z,17.70
2022-09-07T02:29:15.379Z,17.60
2022-09-07T02:31:42.276Z,17.60
2022-09-07T02:34:09.156Z,17.60
2022-09-07T02:36:43.607Z,17.60
2022-09-07T02:39:10.498Z,17.60
2022-09-07T02:41:45.309Z,17.60
2022-09-07T02:44:23.241Z,17.60
2022-09-07T02:46:56.274Z,17.60
2022-09-07T02:50:02.027Z,17.50
2022-09-07T02:52:46.506Z,17.50
2022-09-07T02:55:47.743Z,17.50
2022-09-07T02:58:33.448Z,17.40
2022-09-07T03:01:18.466Z,17.40
2022-09-07T03:04:06.585Z,17.30
2022-09-07T03:06:51.927Z,17.30
2022-09-07T03:09:25.314Z,17.30
2022-09-07T03:11:52.397Z,17.30
2022-09-07T03:14:22.149Z,17.20
2022-09-07T03:16:52.330Z,17.30
2022-09-07T03:19:19.494Z,17.20
2022-09-07T03:21:46.324Z,17.20
2022-09-07T03:24:13.319Z,17.20
2022-09-07T03:26:46.561Z,17.20
2022-09-07T03:29:13.488Z,17.20
2022-09-07T03:31:40.441Z,17.10
2022-09-07T03:34:07.665Z,17.00
2022-09-07T03:36:34.915Z,17.00
2022-09-07T03:39:02.434Z,17.10
2022-09-07T03:41:29.505Z,17.10
2022-09-07T03:43:56.445Z,17.10
2022-09-07T03:46:23.324Z,17.10
2022-09-07T03:48:50.552Z,17.00
2022-09-07T03:51:18.597Z,17.00
2022-09-07T03:53:46.488Z,16.90
2022-09-07T03:56:18.180Z,16.90
2022-09-07T03:58:46.635Z,16.80
2022-09-07T04:01:20.058Z,16.70
2022-09-07T04:03:48.124Z,16.70
2022-09-07T04:06:15.923Z,16.70
2022-09-07T04:08:45.870Z,16.70
2022-09-07T04:11:15.633Z,16.60
2022-09-07T04:13:42.905Z,16.60
2022-09-07T04:16:12.576Z,16.70
2022-09-07T04:18:39.692Z,16.60
2022-09-07T04:21:07.142Z,16.60
2022-09-07T04:23:34.150Z,16.50
2022-09-07T04:26:01.078Z,16.50
2022-09-07T04:28:28.115Z,16.50
2022-09-07T04:30:55.233Z,16.50
2022-09-07T04:33:22.179Z,16.50
2022-09-07T04:35:49.052Z,16.50
2022-09-07T04:38:16.597Z,16.50
2022-09-07T04:40:44.034Z,16.50
2022-09-07T04:43:13.133Z,16.50
2022-09-07T04:45:40.469Z,16.50
2022-09-07T04:48:07.716Z,16.50
2022-09-07T04:50:34.802Z,16.50
2022-09-07T04:53:01.652Z,16.50
2022-09-07T04:55:28.521Z,16.50
2022-09-07T04:57:55.428Z,16.40
2022-09-07T05:00:22.331Z,16.40
2022-09-07T05:02:49.327Z,16.40
2022-09-07T05:05:16.333Z,16.40
2022-09-07T05:07:43.222Z,16.40
2022-09-07T05:10:10.163Z,16.40
2022-09-07T05:12:37.138Z,16.30
2022-09-07T05:15:04.800Z,16.40
2022-09-07T05:17:31.716Z,16.40
2022-09-07T05:19:58.761Z,16.30
2022-09-07T05:22:25.645Z,16.40
2022-09-07T05:24:52.682Z,16.40
2022-09-07T05:27:19.534Z,16.40
2022-09-07T05:30:03.765Z,16.50
2022-09-07T05:32:32.134Z,16.60
2022-09-07T05:34:59.037Z,16.60
2022-09-07T05:37:25.886Z,16.70
2022-09-07T05:39:57.150Z,16.80
2022-09-07T05:42:24.178Z,16.90
2022-09-07T05:44:51.032Z,17.00
2022-09-07T05:47:17.862Z,17.20
2022-09-07T05:49:44.735Z,17.20
2022-09-07T05:52:11.613Z,17.30
2022-09-07T05:54:38.487Z,17.50
2022-09-07T05:57:05.483Z,17.70
2022-09-07T05:59:32.334Z,17.80
2022-09-07T06:02:00.082Z,17.80
2022-09-07T06:04:27.039Z,17.90
2022-09-07T06:12:28.381Z,17.80
2022-09-07T06:14:55.230Z,17.80
2022-09-07T06:17:22.130Z,17.80
2022-09-07T06:19:49.079Z,17.80
2022-09-07T06:22:15.928Z,17.80
2022-09-07T06:24:42.773Z,17.80
2022-09-07T06:27:09.705Z,17.90
2022-09-07T06:29:36.537Z,17.80
2022-09-07T06:34:50.539Z,17.90
2022-09-07T06:37:17.360Z,18.00
2022-09-07T06:39:44.272Z,18.00
2022-09-07T06:42:11.206Z,18.10
2022-09-07T06:44:43.274Z,18.10
2022-09-07T06:47:10.767Z,18.20
2022-09-07T06:49:37.673Z,18.20
2022-09-07T06:52:04.647Z,18.10
2022-09-07T06:57:18.369Z,18.20
2022-09-07T06:59:45.189Z,18.20
2022-09-07T07:02:13.546Z,18.30
2022-09-07T07:04:41.407Z,18.40
2022-09-07T07:07:13.983Z,18.30
2022-09-07T07:09:41.678Z,18.30
2022-09-07T07:12:09.879Z,18.30
2022-09-07T07:14:39.739Z,18.20
2022-09-07T07:17:09.738Z,18.20
2022-09-07T07:19:36.603Z,18.00
2022-09-07T07:24:50.265Z,18.00
2022-09-07T07:27:17.649Z,18.00
2022-09-07T07:29:45.372Z,18.00
2022-09-07T07:32:12.190Z,18.00
2022-09-07T07:34:39.050Z,18.00
2022-09-07T07:37:05.845Z,18.10
2022-09-07T07:42:21.279Z,18.20
2022-09-07T07:44:48.681Z,18.20
2022-09-07T07:47:15.768Z,18.20
2022-09-07T07:49:42.633Z,18.20
2022-09-07T07:54:56.313Z,18.30
2022-09-07T07:57:23.225Z,18.30
2022-09-07T07:59:50.097Z,18.50
2022-09-07T08:02:17.413Z,18.60
2022-09-07T08:04:44.537Z,18.70
2022-09-07T08:07:14.472Z,18.80
2022-09-07T08:09:43.488Z,18.70
2022-09-07T08:12:13.063Z,18.70
2022-09-07T08:14:42.873Z,18.80
2022-09-07T08:17:11.675Z,18.80
2022-09-07T08:19:39.270Z,18.80
2022-09-07T08:22:07.040Z,18.90
2022-09-07T08:24:34.081Z,18.90
2022-09-07T08:27:00.930Z,19.00
2022-09-07T08:29:31.249Z,19.20
2022-09-07T08:32:00.297Z,19.30
2022-09-07T08:34:27.114Z,19.30
2022-09-07T08:36:54.825Z,19.40
2022-09-07T08:39:21.669Z,19.50
2022-09-07T08:42:10.146Z,19.90
2022-09-07T08:45:00.351Z,20.70
2022-09-07T08:47:42.862Z,21.30
2022-09-07T08:50:24.505Z,21.60
2022-09-07T08:55:33.501Z,22.50
2022-09-07T08:58:38.533Z,22.70
2022-09-07T09:07:02.617Z,23.30
2022-09-07T09:09:53.284Z,23.40
2022-09-07T09:12:37.666Z,23.40
2022-09-07T09:15:21.190Z,23.40
2022-09-07T09:17:59.885Z,23.50
2022-09-07T09:20:46.441Z,23.30
2022-09-07T09:23:15.769Z,23.30
2022-09-07T09:25:54.027Z,23.20
2022-09-07T09:28:21.422Z,23.00
2022-09-07T09:30:48.707Z,22.80
2022-09-07T09:33:22.009Z,22.70
2022-09-07T09:35:50.954Z,22.80
2022-09-07T09:38:29.542Z,22.90
2022-09-07T09:40:59.242Z,22.80
2022-09-07T09:43:34.039Z,22.90
2022-09-07T09:46:17.207Z,23.10
2022-09-07T09:48:59.610Z,23.20
2022-09-07T09:54:23.554Z,23.20
2022-09-07T09:56:50.759Z,23.30
2022-09-07T10:05:42.349Z,23.60
2022-09-07T10:08:23.687Z,23.60
2022-09-07T10:10:58.175Z,23.60
2022-09-07T10:13:31.867Z,23.60
2022-09-07T10:16:01.092Z,23.50
2022-09-07T10:18:54.330Z,23.50
2022-09-07T10:21:29.499Z,23.60
2022-09-07T10:24:05.424Z,23.80
2022-09-07T10:26:37.494Z,23.90
2022-09-07T10:29:25.718Z,24.00
2022-09-07T10:32:01.277Z,24.10
2022-09-07T10:34:42.968Z,24.20
2022-09-07T10:37:30.482Z,24.10
2022-09-07T10:40:16.455Z,23.90
2022-09-07T10:45:39.635Z,23.80
2022-09-07T10:48:34.648Z,23.80
2022-09-07T10:51:13.690Z,23.60
2022-09-07T10:57:00.669Z,23.80
2022-09-07T11:03:24.791Z,24.00
2022-09-07T11:05:54.822Z,24.20
2022-09-07T11:08:21.542Z,24.20
2022-09-07T11:11:16.058Z,24.10
2022-09-07T11:14:11.459Z,24.10
2022-09-07T11:16:51.742Z,24.20
2022-09-07T11:19:38.877Z,24.20
2022-09-07T11:23:03.590Z,24.30
2022-09-07T11:25:59.471Z,24.30
2022-09-07T11:28:45.187Z,24.30
2022-09-07T11:31:49.065Z,24.30
2022-09-07T11:34:24.512Z,24.20
2022-09-07T11:37:20.442Z,24.20
2022-09-07T11:40:11.048Z,24.20
2022-09-07T11:43:11.452Z,24.20
2022-09-07T11:45:45.790Z,24.30
2022-09-07T11:48:41.921Z,24.40
2022-09-07T11:51:22.533Z,24.60
2022-09-07T11:54:15.944Z,24.70
2022-09-07T11:56:51.042Z,24.80
2022-09-07T11:59:39.942Z,24.90
2022-09-07T12:02:48.652Z,25.10
2022-09-07T12:05:43.895Z,25.10
2022-09-07T12:08:37.267Z,25.10
2022-09-07T12:11:42.837Z,25.00
2022-09-07T12:14:16.885Z,25.10
2022-09-07T12:17:23.824Z,25.00
2022-09-07T12:20:16.246Z,24.80
2022-09-07T12:23:15.318Z,24.90
2022-09-07T12:25:44.267Z,25.00
2022-09-07T12:28:26.027Z,24.90
2022-09-07T12:31:05.665Z,24.70
2022-09-07T12:33:35.747Z,24.70
2022-09-07T12:36:28.117Z,24.90
2022-09-07T12:39:21.930Z,24.80
2022-09-07T12:45:38.633Z,25.00
2022-09-07T12:48:17.059Z,25.00
2022-09-07T12:51:10.115Z,25.10
2022-09-07T12:53:58.078Z,25.10
2022-09-07T12:59:50.739Z,25.40
2022-09-07T13:02:47.087Z,25.30
2022-09-07T13:05:53.519Z,25.30
2022-09-07T13:08:55.710Z,25.20
2022-09-07T13:11:30.682Z,25.10
2022-09-07T13:14:08.821Z,24.90
2022-09-07T13:19:51.060Z,24.80
2022-09-07T13:22:32.629Z,25.00
2022-09-07T13:25:02.101Z,25.20
2022-09-07T13:27:53.676Z,25.30
2022-09-07T13:30:39.404Z,25.20
2022-09-07T13:33:24.351Z,25.10
2022-09-07T13:36:00.543Z,24.90
2022-09-07T13:38:32.402Z,25.00
2022-09-07T13:41:07.017Z,25.10
2022-09-07T13:43:35.878Z,25.20
2022-09-07T13:46:12.445Z,25.30
2022-09-07T13:48:50.444Z,25.30
2022-09-07T13:51:37.744Z,25.30
2022-09-07T13:54:29.328Z,25.10
2022-09-07T13:57:29.577Z,25.00
2022-09-07T13:59:57.121Z,25.20
2022-09-07T14:02:42.478Z,25.20
2022-09-07T14:05:11.631Z,25.40
2022-09-07T14:07:45.905Z,25.50
2022-09-07T14:10:12.684Z,25.50
2022-09-07T14:12:50.954Z,25.40
2022-09-07T14:15:39.446Z,25.50
2022-09-07T14:18:12.741Z,25.40
2022-09-07T14:20:49.406Z,25.50
2022-09-07T14:23:27.066Z,25.60
2022-09-07T14:26:27.255Z,25.70
2022-09-07T14:28:56.026Z,25.80
2022-09-07T14:31:24.957Z,25.70
2022-09-07T14:34:01.547Z,25.60
2022-09-07T14:36:45.694Z,25.50
2022-09-07T14:39:15.564Z,25.40
2022-09-07T14:41:43.382Z,25.20
2022-09-07T14:44:39.543Z,25.10
2022-09-07T14:47:19.023Z,25.00
2022-09-07T14:49:52.870Z,24.90
2022-09-07T14:53:33.529Z,24.90
2022-09-07T14:55:42.491Z,25.00
2022-09-07T14:58:15.160Z,24.90
2022-09-07T15:00:44.959Z,24.90
2022-09-07T15:03:43.839Z,24.90
2022-09-07T15:07:00.951Z,24.90
2022-09-07T15:08:58.380Z,25.10
2022-09-07T15:11:36.174Z,25.30
2022-09-07T15:14:10.854Z,25.40
2022-09-07T15:16:42.517Z,25.40
2022-09-07T15:19:15.689Z,25.30
2022-09-07T15:21:43.937Z,25.20
2022-09-07T15:24:11.670Z,25.00
2022-09-07T15:29:28.553Z,24.80
2022-09-07T15:32:03.447Z,24.70
2022-09-07T15:34:32.395Z,24.50
2022-09-07T15:37:00.884Z,24.60
2022-09-07T15:39:30.127Z,24.70
2022-09-07T15:41:58.891Z,24.90
2022-09-07T15:44:28.419Z,24.90
2022-09-07T15:49:49.222Z,25.10
2022-09-07T15:52:18.020Z,25.10
2022-09-07T15:54:45.034Z,25.10
2022-09-07T15:59:58.784Z,24.90
2022-09-07T16:05:13.155Z,24.80
2022-09-07T16:10:31.192Z,24.50
2022-09-07T16:13:02.927Z,24.50
2022-09-07T16:15:31.594Z,24.50
2022-09-07T16:17:58.696Z,24.40
2022-09-07T16:20:25.918Z,24.40
2022-09-07T16:25:39.688Z,24.20
2022-09-07T16:28:07.173Z,24.20
2022-09-07T16:30:34.146Z,24.20
2022-09-07T16:33:00.987Z,24.30
2022-09-07T16:35:27.886Z,24.30
2022-09-07T16:40:41.854Z,24.20
2022-09-07T16:43:10.004Z,24.10
2022-09-07T16:48:23.689Z,23.90
2022-09-07T16:51:00.266Z,23.80
2022-09-07T16:53:30.851Z,23.80
2022-09-07T16:56:02.239Z,23.80
2022-09-07T16:58:38.285Z,23.70
2022-09-07T17:01:06.834Z,23.60
2022-09-07T17:03:34.283Z,23.60
2022-09-07T17:06:01.553Z,23.60
2022-09-07T17:08:28.881Z,23.60
2022-09-07T17:11:00.898Z,23.50
2022-09-07T17:13:28.370Z,23.40
2022-09-07T17:15:55.165Z,23.30
2022-09-07T17:19:28.971Z,23.20
2022-09-07T17:21:09.817Z,23.10
2022-09-07T17:23:45.576Z,23.00
2022-09-07T17:26:19.862Z,22.90
2022-09-07T17:28:50.171Z,22.80
2022-09-07T17:34:13.448Z,22.50
2022-09-07T17:36:40.601Z,22.30
2022-09-07T17:39:16.826Z,22.20
2022-09-07T17:41:44.804Z,22.00
2022-09-07T17:44:22.548Z,21.80
2022-09-07T17:46:50.621Z,21.70
2022-09-07T17:49:17.845Z,21.60
2022-09-07T17:51:45.560Z,21.40
2022-09-07T17:54:15.735Z,21.30
2022-09-07T17:56:44.568Z,21.20
2022-09-07T18:01:58.508Z,20.90
2022-09-07T18:04:25.541Z,20.80
2022-09-07T18:06:54.248Z,20.70
2022-09-07T18:09:21.786Z,20.60
2022-09-07T18:11:49.856Z,20.50
2022-09-07T18:14:17.900Z,20.50
2022-09-07T18:16:46.487Z,20.40
2022-09-07T18:19:13.525Z,20.30
2022-09-07T18:21:42.670Z,20.20
2022-09-07T18:24:16.928Z,20.20
2022-09-07T18:26:50.169Z,20.10
2022-09-07T18:29:31.189Z,20.10
2022-09-07T18:32:00.829Z,20.00
2022-09-07T18:34:28.800Z,20.00
2022-09-07T18:36:55.876Z,20.00
2022-09-07T18:39:22.781Z,19.80
2022-09-07T18:41:49.597Z,19.60
2022-09-07T18:47:03.374Z,19.50
2022-09-07T18:49:30.127Z,19.40
2022-09-07T18:54:47.190Z,19.30
2022-09-07T18:57:15.311Z,19.30
2022-09-07T18:59:42.134Z,19.20
2022-09-07T19:02:09.787Z,19.10
2022-09-07T19:07:28.830Z,19.00
2022-09-07T19:27:33.127Z,19.20
2022-09-07T19:29:59.985Z,19.00
2022-09-07T19:32:26.806Z,18.90
2022-09-07T19:34:56.567Z,18.80
2022-09-07T19:37:28.834Z,18.60
2022-09-07T19:39:55.960Z,18.50
2022-09-07T19:42:23.977Z,18.50
2022-09-07T19:44:51.339Z,18.70
2022-09-07T19:47:18.648Z,18.60
2022-09-07T19:49:45.462Z,18.40
2022-09-07T19:52:12.214Z,18.30
2022-09-07T19:54:39.422Z,18.20
2022-09-07T19:57:06.848Z,18.10
2022-09-07T19:59:33.632Z,18.10
2022-09-07T20:02:00.514Z,18.10
2022-09-07T20:04:28.253Z,18.20
2022-09-07T20:06:56.327Z,18.20
2022-09-07T20:09:23.048Z,18.10
2022-09-07T20:11:49.866Z,18.00
2022-09-07T20:14:17.293Z,17.90
2022-09-07T20:16:44.306Z,17.80
2022-09-07T20:19:14.345Z,17.70
2022-09-07T20:21:41.535Z,17.70
2022-09-07T20:24:08.350Z,17.80
2022-09-07T20:26:35.166Z,17.70
2022-09-07T20:29:25.652Z,17.80
2022-09-07T20:31:48.922Z,17.70
2022-09-07T20:34:15.832Z,17.70
2022-09-07T20:36:42.551Z,17.70
2022-09-07T20:39:14.981Z,17.60
2022-09-07T20:41:41.759Z,17.60
2022-09-07T20:44:09.266Z,17.60
2022-09-07T20:46:36.519Z,17.50
2022-09-07T20:49:04.845Z,17.40
2022-09-07T20:51:32.102Z,17.30
2022-09-07T20:54:01.276Z,17.30
2022-09-07T20:56:28.969Z,17.40
2022-09-07T20:59:01.317Z,17.30
2022-09-07T21:01:29.671Z,17.30
2022-09-07T21:03:58.449Z,17.40
2022-09-07T21:06:26.829Z,17.40
2022-09-07T21:08:54.970Z,17.40
2022-09-07T21:11:24.379Z,17.30
2022-09-07T21:13:59.375Z,17.30
2022-09-07T21:16:27.218Z,17.40
2022-09-07T21:18:57.406Z,17.30
2022-09-07T21:21:25.083Z,17.40
2022-09-07T21:24:00.019Z,17.30
2022-09-07T21:26:28.450Z,17.20
2022-09-07T21:29:03.862Z,17.10
2022-09-07T21:31:32.653Z,17.00
2022-09-07T21:34:01.228Z,17.10
2022-09-07T21:36:28.718Z,17.10
2022-09-07T21:38:55.884Z,17.10
2022-09-07T21:41:24.437Z,17.30
2022-09-07T21:43:59.108Z,17.40
2022-09-07T21:46:27.400Z,17.50
2022-09-07T21:48:56.144Z,17.60
2022-09-07T21:51:23.548Z,17.60
2022-09-07T21:54:00.741Z,17.60
2022-09-07T21:56:29.426Z,17.50
2022-09-07T21:58:58.700Z,17.60
2022-09-07T22:01:27.848Z,17.70
2022-09-07T22:03:59.842Z,17.80
2022-09-07T22:06:30.166Z,17.90
2022-09-07T22:08:56.970Z,18.10
2022-09-07T22:11:26.039Z,18.00
2022-09-07T22:13:57.484Z,18.00
2022-09-07T22:16:24.813Z,17.80
2022-09-07T22:18:52.134Z,17.80
2022-09-07T22:21:22.083Z,17.70
2022-09-07T22:23:51.274Z,17.80
2022-09-07T22:26:20.385Z,17.80
2022-09-07T22:28:47.554Z,17.80
2022-09-07T22:31:16.950Z,17.80
2022-09-07T22:33:45.668Z,17.80
2022-09-07T22:36:14.410Z,17.90
2022-09-07T22:38:42.704Z,17.90
2022-09-07T22:41:11.762Z,18.00
2022-09-07T22:43:38.838Z,18.00
2022-09-07T22:46:06.769Z,18.00
2022-09-07T22:48:33.714Z,18.10
2022-09-07T22:51:01.727Z,18.10
2022-09-07T22:53:31.427Z,18.20
2022-09-07T22:55:59.179Z,18.40
2022-09-07T22:58:29.020Z,18.40
2022-09-07T23:01:00.939Z,18.20
2022-09-07T23:03:32.435Z,18.00
2022-09-07T23:06:00.663Z,17.90
2022-09-07T23:08:28.212Z,17.90
2022-09-07T23:10:55.282Z,18.00
2022-09-07T23:13:22.241Z,17.80
2022-09-07T23:15:49.215Z,17.80
2022-09-07T23:18:20.727Z,17.70
2022-09-07T23:20:47.490Z,17.70
2022-09-07T23:23:14.345Z,17.60
2022-09-07T23:25:47.419Z,17.60
2022-09-07T23:28:14.260Z,17.60
2022-09-07T23:30:49.793Z,17.70
2022-09-07T23:33:17.141Z,17.70
2022-09-07T23:35:44.081Z,17.80
2022-09-07T23:38:10.932Z,17.80
2022-09-07T23:40:37.984Z,17.90
2022-09-07T23:43:04.739Z,17.90
2022-09-07T23:45:31.771Z,17.90
2022-09-07T23:47:59.093Z,17.90
2022-09-07T23:50:25.938Z,17.90
2022-09-07T23:52:52.729Z,17.90
2022-09-07T23:55:20.477Z,17.80
2022-09-07T23:57:48.639Z,17.80
